Time,TemperatureF,DewpointF,PressureIn,WindDirection,WindDirectionDegrees,WindSpeedMPH,WindSpeedGustMPH,Humidity,HourlyPrecipIn,Conditions,Clouds,dailyrainin,SolarRadiationWatts/m^2,SoftwareType,DateUTC
2013-08-10 00:22:00,64.0,39.0,-100.00,ENE,62,4.0,11.0,40,0.00,,,0.00,0.000000,,2013-08-10 06:22:00,
2013-08-10 00:32:00,64.0,39.0,-100.00,ENE,62,4.0,11.0,40,0.00,,,0.00,0.000000,,2013-08-10 06:32:00,
2013-08-10 00:44:00,64.0,39.0,-100.00,ENE,62,4.0,11.0,40,0.00,,,0.00,0.000000,,2013-08-10 06:44:00,
2013-08-10 01:22:00,63.0,39.0,-100.00,NE,50,3.0,11.0,41,0.00,,,0.00,0.000000,,2013-08-10 07:22:00,
2013-08-10 01:33:00,63.0,39.0,-100.00,NE,50,3.0,11.0,41,0.00,,,0.00,0.000000,,2013-08-10 07:33:00,
2013-08-10 01:43:00,63.0,39.0,-100.00,NE,50,3.0,11.0,41,0.00,,,0.00,0.000000,,2013-08-10 07:43:00,
2013-08-10 02:12:00,61.0,38.0,-100.00,NE,48,3.0,9.0,43,0.00,,,0.00,0.000000,,2013-08-10 08:12:00,
2013-08-10 02:21:00,61.0,38.0,-100.00,NE,48,3.0,9.0,43,0.00,,,0.00,0.000000,,2013-08-10 08:21:00,
2013-08-10 02:32:00,61.0,38.0,-100.00,NE,48,3.0,9.0,43,0.00,,,0.00,0.000000,,2013-08-10 08:32:00,
2013-08-10 02:43:00,61.0,38.0,-100.00,NE,48,3.0,9.0,43,0.00,,,0.00,0.000000,,2013-08-10 08:43:00,
2013-08-10 03:12:00,60.0,39.0,-100.00,ENE,59,3.0,10.0,45,0.00,,,0.00,0.000000,,2013-08-10 09:12:00,
2013-08-10 03:32:00,60.0,39.0,-100.00,ENE,59,3.0,10.0,45,0.00,,,0.00,0.000000,,2013-08-10 09:32:00,
2013-08-10 03:42:00,60.0,39.0,-100.00,ENE,59,3.0,10.0,45,0.00,,,0.00,0.000000,,2013-08-10 09:42:00,
2013-08-10 04:11:00,59.0,39.0,-100.00,ENE,73,3.0,9.0,47,0.00,,,0.00,0.000000,,2013-08-10 10:11:00,
2013-08-10 04:21:00,59.0,39.0,-100.00,ENE,73,3.0,9.0,47,0.00,,,0.00,0.000000,,2013-08-10 10:21:00,
2013-08-10 04:33:00,59.0,39.0,-100.00,ENE,73,3.0,9.0,47,0.00,,,0.00,0.000000,,2013-08-10 10:33:00,
2013-08-10 04:43:00,59.0,39.0,-100.00,ENE,73,3.0,9.0,47,0.00,,,0.00,0.000000,,2013-08-10 10:43:00,
2013-08-10 05:11:00,58.0,39.0,-100.00,ENE,64,3.0,9.0,50,0.00,,,0.00,0.000000,,2013-08-10 11:11:00,
2013-08-10 05:22:00,58.0,39.0,-100.00,ENE,64,3.0,9.0,50,0.00,,,0.00,0.000000,,2013-08-10 11:22:00,
2013-08-10 05:33:00,58.0,39.0,-100.00,ENE,64,3.0,9.0,50,0.00,,,0.00,0.000000,,2013-08-10 11:33:00,
2013-08-10 05:43:00,58.0,39.0,-100.00,ENE,64,3.0,9.0,50,0.00,,,0.00,0.000000,,2013-08-10 11:43:00,
2013-08-10 08:32:00,60.0,43.0,-100.00,ENE,70,3.0,8.0,53,-99.99,,,0.00,56.000000,,2013-08-10 14:32:00,
2013-08-10 08:42:00,60.0,43.0,-100.00,ENE,70,3.0,8.0,53,-99.99,,,0.00,56.000000,,2013-08-10 14:42:00,
2013-08-10 09:22:00,66.0,43.0,-100.00,ENE,72,2.0,10.0,44,0.00,,,0.00,162.000000,,2013-08-10 15:22:00,
2013-08-10 09:33:00,66.0,43.0,-100.00,ENE,72,2.0,10.0,44,0.00,,,0.00,162.000000,,2013-08-10 15:33:00,
2013-08-10 09:43:00,66.0,43.0,-100.00,ENE,72,2.0,10.0,44,0.00,,,0.00,162.000000,,2013-08-10 15:43:00,
2013-08-10 10:22:00,73.0,43.0,-100.00,ENE,63,2.0,9.0,34,0.00,,,0.00,376.000000,,2013-08-10 16:22:00,
2013-08-10 10:32:00,73.0,43.0,-100.00,ENE,63,2.0,9.0,34,0.00,,,0.00,376.000000,,2013-08-10 16:32:00,
2013-08-10 10:43:00,73.0,43.0,-100.00,ENE,63,2.0,9.0,34,0.00,,,0.00,376.000000,,2013-08-10 16:43:00,
2013-08-10 11:12:00,77.0,39.0,-100.00,ESE,106,2.0,8.0,26,0.00,,,-99.99,523.000000,,2013-08-10 17:12:00,
2013-08-10 11:22:00,77.0,39.0,-100.00,ESE,106,2.0,8.0,26,0.00,,,-99.99,523.000000,,2013-08-10 17:22:00,
2013-08-10 11:33:00,77.0,39.0,-100.00,ESE,106,2.0,8.0,26,0.00,,,-99.99,523.000000,,2013-08-10 17:33:00,
2013-08-10 11:43:00,77.0,39.0,-100.00,ESE,106,2.0,8.0,26,0.00,,,-99.99,523.000000,,2013-08-10 17:43:00,
2013-08-10 12:11:00,78.0,32.0,-100.00,West,266,3.0,8.0,19,0.00,,,0.00,532.000000,,2013-08-10 18:11:00,
2013-08-10 12:23:00,78.0,32.0,-100.00,West,266,3.0,8.0,19,0.00,,,0.00,532.000000,,2013-08-10 18:23:00,
2013-08-10 12:32:00,78.0,32.0,-100.00,West,266,3.0,8.0,19,0.00,,,0.00,532.000000,,2013-08-10 18:32:00,
2013-08-10 12:43:00,78.0,32.0,-100.00,West,266,3.0,8.0,19,0.00,,,0.00,532.000000,,2013-08-10 18:43:00,
2013-08-10 13:11:00,82.0,31.0,-100.00,WNW,283,3.0,9.0,16,0.00,,,0.00,632.000000,,2013-08-10 19:11:00,
2013-08-10 13:22:00,82.0,31.0,-100.00,WNW,283,3.0,9.0,16,0.00,,,0.00,632.000000,,2013-08-10 19:22:00,
2013-08-10 13:32:00,82.0,31.0,-100.00,WNW,283,3.0,9.0,16,0.00,,,0.00,632.000000,,2013-08-10 19:32:00,
2013-08-10 13:44:00,82.0,31.0,-100.00,WNW,283,3.0,9.0,16,0.00,,,0.00,632.000000,,2013-08-10 19:44:00,
2013-08-10 14:11:00,80.0,31.0,-100.00,WNW,288,4.0,11.0,17,0.00,,,0.00,711.000000,,2013-08-10 20:11:00,
2013-08-10 14:22:00,80.0,31.0,-100.00,WNW,288,4.0,11.0,17,0.00,,,0.00,711.000000,,2013-08-10 20:22:00,
2013-08-10 14:33:00,80.0,31.0,-100.00,WNW,288,4.0,11.0,17,0.00,,,0.00,711.000000,,2013-08-10 20:33:00,
2013-08-10 14:43:00,80.0,31.0,-100.00,WNW,288,4.0,11.0,17,0.00,,,0.00,711.000000,,2013-08-10 20:43:00,
2013-08-10 15:11:00,80.0,28.0,-100.00,SW,230,6.0,15.0,15,0.00,,,-99.99,665.000000,,2013-08-10 21:11:00,
2013-08-10 15:22:00,80.0,28.0,-100.00,SW,230,6.0,15.0,15,0.00,,,-99.99,665.000000,,2013-08-10 21:22:00,
2013-08-10 15:32:00,80.0,28.0,-100.00,SW,230,6.0,15.0,15,0.00,,,-99.99,665.000000,,2013-08-10 21:32:00,
2013-08-10 15:42:00,80.0,28.0,-100.00,SW,230,6.0,15.0,15,0.00,,,-99.99,665.000000,,2013-08-10 21:42:00,
2013-08-10 16:21:00,83.0,27.0,-100.00,West,270,6.0,15.0,13,0.00,,,0.00,753.000000,,2013-08-10 22:21:00,
2013-08-10 16:32:00,83.0,27.0,-100.00,West,270,6.0,15.0,13,0.00,,,0.00,753.000000,,2013-08-10 22:32:00,
2013-08-10 16:43:00,83.0,27.0,-100.00,West,270,6.0,15.0,13,0.00,,,0.00,753.000000,,2013-08-10 22:43:00,
2013-08-10 17:12:00,83.0,29.0,-100.00,West,261,4.0,17.0,14,0.00,,,0.00,530.000000,,2013-08-10 23:12:00,
2013-08-10 17:22:00,83.0,29.0,-100.00,West,261,4.0,17.0,14,0.00,,,0.00,530.000000,,2013-08-10 23:22:00,
2013-08-10 17:32:00,83.0,29.0,-100.00,West,261,4.0,17.0,14,0.00,,,0.00,530.000000,,2013-08-10 23:32:00,
2013-08-10 17:43:00,83.0,29.0,-100.00,West,261,4.0,17.0,14,0.00,,,0.00,530.000000,,2013-08-10 23:43:00,
2013-08-10 18:11:00,82.0,28.0,-100.00,West,279,5.0,15.0,14,0.00,,,0.00,551.000000,,2013-08-11 00:11:00,
2013-08-10 18:22:00,82.0,28.0,-100.00,West,279,5.0,15.0,14,0.00,,,0.00,551.000000,,2013-08-11 00:22:00,
2013-08-10 18:32:00,82.0,28.0,-100.00,West,279,5.0,15.0,14,0.00,,,0.00,551.000000,,2013-08-11 00:32:00,
2013-08-10 18:42:00,82.0,28.0,-100.00,West,279,5.0,15.0,14,0.00,,,0.00,551.000000,,2013-08-11 00:42:00,
2013-08-10 19:11:00,80.0,28.0,-100.00,WNW,282,4.0,10.0,15,0.00,,,0.00,316.000000,,2013-08-11 01:11:00,
2013-08-10 19:22:00,80.0,28.0,-100.00,WNW,282,4.0,10.0,15,0.00,,,0.00,316.000000,,2013-08-11 01:22:00,
2013-08-10 19:32:00,80.0,28.0,-100.00,WNW,282,4.0,10.0,15,0.00,,,0.00,316.000000,,2013-08-11 01:32:00,
2013-08-10 19:42:00,80.0,28.0,-100.00,WNW,282,4.0,10.0,15,0.00,,,0.00,316.000000,,2013-08-11 01:42:00,
2013-08-10 20:11:00,77.0,27.0,-100.00,West,266,3.0,9.0,16,0.00,,,0.00,59.000000,,2013-08-11 02:11:00,
2013-08-10 20:22:00,77.0,27.0,-100.00,West,266,3.0,9.0,16,0.00,,,0.00,59.000000,,2013-08-11 02:22:00,
2013-08-10 20:32:00,77.0,27.0,-100.00,West,266,3.0,9.0,16,0.00,,,0.00,59.000000,,2013-08-11 02:32:00,
2013-08-10 20:43:00,77.0,27.0,-100.00,West,266,3.0,9.0,16,0.00,,,0.00,59.000000,,2013-08-11 02:43:00,
2013-08-10 21:14:00,72.0,38.0,-100.00,East,97,0.0,4.0,29,0.00,,,0.00,38.000000,,2013-08-11 03:14:00,
2013-08-10 21:24:00,72.0,38.0,-100.00,East,97,0.0,4.0,29,0.00,,,0.00,38.000000,,2013-08-11 03:24:00,
2013-08-10 21:34:00,72.0,38.0,-100.00,East,97,0.0,4.0,29,0.00,,,0.00,38.000000,,2013-08-11 03:34:00,
2013-08-10 21:43:00,72.0,38.0,-100.00,East,97,0.0,4.0,29,0.00,,,0.00,38.000000,,2013-08-11 03:43:00,
2013-08-10 22:12:00,66.0,37.0,-100.00,ENE,72,0.0,2.0,34,0.00,,,0.00,0.000000,,2013-08-11 04:12:00,
2013-08-10 22:22:00,66.0,37.0,-100.00,ENE,72,0.0,2.0,34,0.00,,,0.00,0.000000,,2013-08-11 04:22:00,
2013-08-10 22:32:00,66.0,37.0,-100.00,ENE,72,0.0,2.0,34,0.00,,,0.00,0.000000,,2013-08-11 04:32:00,
2013-08-10 22:42:00,66.0,37.0,-100.00,ENE,72,0.0,2.0,34,0.00,,,0.00,0.000000,,2013-08-11 04:42:00,
2013-08-10 23:22:00,62.0,37.0,-100.00,NE,46,0.0,4.0,40,0.00,,,0.00,0.000000,,2013-08-11 05:22:00,
2013-08-10 23:34:00,62.0,37.0,-100.00,NE,46,0.0,4.0,40,0.00,,,0.00,0.000000,,2013-08-11 05:34:00,
2013-08-10 23:44:00,62.0,37.0,-100.00,NE,46,0.0,4.0,40,0.00,,,0.00,0.000000,,2013-08-11 05:44:00,